Time;durP1;ratioP1;P1;durP2;ratioP2;P2;SDS_P1;SDS_P2;PMS_P1;PMS_P2;Temp;Humidity;BMP_temperature;BMP_pressure;BME280_temperature;BME280_humidity;BME280_pressure;Samples;Min_cycle;Max_cycle;Signal;HPM_P1;HPM_P2
2022/01/09 00:02:00;;;;;;;;;;;;;;;-2.86;77.79;99236.50;1604357;86;20118;-76
2022/01/09 00:04:26;;;;;;;;;;;;;;;-2.86;78.12;99230.59;1628709;87;20208;-74
2022/01/09 00:06:53;;;;;;;;;;;;;;;-2.86;78.39;99229.78;1611656;86;20440;-76
2022/01/09 00:09:20;;;;;;;;;;;;;;;-2.86;78.51;99225.23;1625953;87;20156;-77
2022/01/09 00:11:48;;;;;;;;;;;;;;;-2.85;78.64;99221.48;1621410;87;20581;-76
2022/01/09 00:14:14;;;;;;;;;;;;;;;-2.86;78.80;99225.23;1605978;87;20150;-75
2022/01/09 00:16:41;;;;;;;;;;;;;;;-2.87;79.16;99226.28;1624153;87;20444;-77
2022/01/09 00:19:07;;;;;;;;;;;;;;;-2.88;79.43;99219.80;1618885;87;20484;-76
2022/01/09 00:21:34;;;;;;;;;;;;;;;-2.87;79.74;99219.56;1603461;88;20236;-77
2022/01/09 00:24:00;;;;;;;;;;;;;;;-2.89;79.93;99219.02;1595839;87;21502;-76
2022/01/09 00:26:27;;;;;;;;;;;;;;;-2.89;80.01;99220.36;1587177;89;20175;-74
2022/01/09 00:28:53;;;;;;;;;;;;;;;-2.90;80.07;99216.04;1598185;88;20117;-75
2022/01/09 00:31:19;;;;;;;;;;;;;;;-2.87;80.47;99210.16;1606615;88;20586;-74
2022/01/09 00:33:45;;;;;;;;;;;;;;;-2.88;80.64;99204.50;1594374;87;20424;-74
2022/01/09 00:36:11;;;;;;;;;;;;;;;-2.89;80.55;99200.22;1598817;88;21107;-75
2022/01/09 00:38:38;;;;;;;;;;;;;;;-2.88;80.77;99201.00;1624688;88;20126;-75
2022/01/09 00:41:04;;;;;;;;;;;;;;;-2.89;80.76;99194.02;1597337;88;20151;-74
2022/01/09 00:43:31;;;;;;;;;;;;;;;-2.91;81.25;99191.58;1573318;90;20587;-76
2022/01/09 00:45:57;;;;;;;;;;;;;;;-2.94;81.95;99193.39;1610098;88;20186;-76
2022/01/09 00:48:23;;;;;;;;;;;;;;;-2.96;82.73;99182.06;1611884;87;21075;-76
2022/01/09 00:50:50;;;;;;;;;;;;;;;-2.97;82.92;99183.64;1597921;88;20155;-77
2022/01/09 00:53:16;;;;;;;;;;;;;;;-2.99;83.55;99177.17;1578761;89;20181;-75
2022/01/09 00:55:43;;;;;;;;;;;;;;;-3.02;85.04;99171.74;1551405;92;20154;-74
2022/01/09 00:58:09;;;;;;;;;;;;;;;-3.07;85.24;99177.00;1615820;86;20623;-76
2022/01/09 01:00:39;;;;;;;;;;;;;;;-3.10;86.42;99168.08;1614712;86;21155;-74
2022/01/09 01:03:04;;;;;;;;;;;;;;;-3.13;86.94;99163.18;1607506;87;20144;-75
2022/01/09 01:05:31;;;;;;;;;;;;;;;-3.17;87.97;99153.96;1618177;87;20193;-76
2022/01/09 01:07:58;;;;;;;;;;;;;;;-3.20;89.05;99146.38;1622867;87;20375;-75
2022/01/09 01:10:26;;;;;;;;;;;;;;;-3.23;89.88;99133.95;1622426;87;20438;-75
2022/01/09 01:12:52;;;;;;;;;;;;;;;-3.28;90.65;99129.81;1625350;87;21026;-76
2022/01/09 01:15:19;;;;;;;;;;;;;;;-3.34;91.72;99127.55;1606311;86;20319;-75
2022/01/09 01:17:45;;;;;;;;;;;;;;;-3.38;92.88;99123.17;1626917;87;20173;-76
2022/01/09 01:20:12;;;;;;;;;;;;;;;-3.41;93.30;99122.30;1630699;87;20447;-77
2022/01/09 01:22:39;;;;;;;;;;;;;;;-3.45;93.65;99117.11;1621914;87;20151;-75
2022/01/09 01:25:07;;;;;;;;;;;;;;;-3.46;93.71;99115.48;1623830;87;21170;-76
2022/01/09 01:27:34;;;;;;;;;;;;;;;-3.49;94.32;99107.94;1605948;87;20109;-75
2022/01/09 01:30:00;;;;;;;;;;;;;;;-3.50;94.79;99109.52;1618740;87;20467;-73
2022/01/09 01:32:27;;;;;;;;;;;;;;;-3.52;94.96;99103.03;1623139;85;20158;-76
2022/01/09 01:34:53;;;;;;;;;;;;;;;-3.52;95.18;99097.67;1625482;86;20093;-73
2022/01/09 01:37:20;;;;;;;;;;;;;;;-3.52;95.58;99091.48;1625499;87;21121;-75
2022/01/09 01:39:46;;;;;;;;;;;;;;;-3.53;95.74;99081.28;1626853;87;20506;-75
2022/01/09 01:42:12;;;;;;;;;;;;;;;-3.54;95.93;99083.67;1623690;86;20165;-75
2022/01/09 01:44:44;;;;;;;;;;;;;;;-3.54;96.91;99072.94;1634238;87;20431;-76
2022/01/09 01:47:10;;;;;;;;;;;;;;;-3.55;97.35;99070.49;1627383;87;20153;-75
2022/01/09 01:49:37;;;;;;;;;;;;;;;-3.58;97.60;99067.75;1623341;86;21123;-74
2022/01/09 01:52:04;;;;;;;;;;;;;;;-3.61;98.91;99065.54;1627928;87;20081;-74
2022/01/09 01:54:32;;;;;;;;;;;;;;;-3.64;99.34;99060.64;1623641;86;20112;-72
2022/01/09 01:56:58;;;;;;;;;;;;;;;-3.67;100.00;99059.77;1625763;86;20415;-71
2022/01/09 01:59:29;;;;;;;;;;;;;;;-3.70;100.00;99050.33;1626037;86;20168;-77
2022/01/09 02:02:01;;;;;;;;;;;;;;;-3.71;100.00;99047.87;1608417;86;21180;-87
2022/01/09 02:04:27;;;;;;;;;;;;;;;-3.73;100.00;99044.09;1607224;88;20093;-81
2022/01/09 02:06:57;;;;;;;;;;;;;;;-3.74;100.00;99038.96;1628992;86;20195;-77
2022/01/09 02:09:25;;;;;;;;;;;;;;;-3.75;100.00;99038.67;1630824;86;20371;-79
2022/01/09 02:11:54;;;;;;;;;;;;;;;-3.77;100.00;99036.75;1629615;86;20510;-79
2022/01/09 02:14:21;;;;;;;;;;;;;;;-3.79;100.00;99034.30;1624683;86;21179;-81
2022/01/09 02:16:51;;;;;;;;;;;;;;;-3.81;100.00;99036.41;1630782;86;20120;-83
2022/01/09 02:19:27;;;;;;;;;;;;;;;-3.80;100.00;99027.30;1625347;86;20104;-79
2022/01/09 02:21:59;;;;;;;;;;;;;;;-3.81;100.00;99023.52;1630784;86;20647;-79
2022/01/09 02:24:28;;;;;;;;;;;;;;;-3.81;100.00;99027.54;1627052;86;20096;-80
2022/01/09 02:26:52;;;;;;;;;;;;;;;-3.82;100.00;99018.68;1635519;86;21103;-80
2022/01/09 02:29:19;;;;;;;;;;;;;;;-3.80;100.00;99013.08;1637339;85;20185;-80
2022/01/09 02:31:45;;;;;;;;;;;;;;;-3.79;100.00;99013.38;1619848;86;20153;-79
2022/01/09 02:34:19;;;;;;;;;;;;;;;-3.79;100.00;99003.98;1607736;86;20171;-78
2022/01/09 02:36:45;;;;;;;;;;;;;;;-3.79;100.00;98997.28;1628445;86;20101;-77
2022/01/09 02:39:14;;;;;;;;;;;;;;;-3.78;100.00;99000.25;1623562;86;22085;-76
2022/01/09 02:41:44;;;;;;;;;;;;;;;-3.78;100.00;98989.52;1622921;86;20093;-76
2022/01/09 02:44:15;;;;;;;;;;;;;;;-3.81;100.00;98990.81;1628361;87;20131;-79
2022/01/09 02:47:03;;;;;;;;;;;;;;;-3.82;100.00;98989.17;1630220;86;20139;-77
2022/01/09 02:49:31;;;;;;;;;;;;;;;-3.83;100.00;98990.23;1597067;87;20110;-70
2022/01/09 02:51:58;;;;;;;;;;;;;;;-3.82;100.00;98988.36;1612266;87;21528;-71
2022/01/09 02:57:14;;;;;;;;;;;;;;;-3.82;100.00;98988.36;1617455;86;20178;-71
2022/01/09 02:59:49;;;;;;;;;;;;;;;-3.83;100.00;98987.55;1623308;87;20207;-70
2022/01/09 03:02:22;;;;;;;;;;;;;;;-3.82;100.00;98987.02;1625081;87;20194;-74
2022/01/09 03:04:52;;;;;;;;;;;;;;;-3.83;100.00;98974.14;1624941;87;21121;-73
2022/01/09 03:07:25;;;;;;;;;;;;;;;-3.82;100.00;98974.95;1605698;87;20557;-71
2022/01/09 03:09:56;;;;;;;;;;;;;;;-3.83;100.00;98969.30;1600778;88;20104;-71
2022/01/09 03:12:27;;;;;;;;;;;;;;;-3.84;100.00;98967.14;1621960;87;20445;-71
2022/01/09 03:14:58;;;;;;;;;;;;;;;-3.84;100.00;98956.41;1629676;87;20152;-72
2022/01/09 03:17:25;;;;;;;;;;;;;;;-3.84;100.00;98954.26;1630553;87;22196;-72
2022/01/09 03:19:58;;;;;;;;;;;;;;;-3.83;100.00;98951.87;1594058;87;20233;-71
2022/01/09 03:22:32;;;;;;;;;;;;;;;-3.82;100.00;98938.75;1629354;87;20212;-69
2022/01/09 03:25:03;;;;;;;;;;;;;;;-3.83;100.00;98940.61;1615235;87;20088;-69
2022/01/09 03:27:38;;;;;;;;;;;;;;;-3.84;100.00;98939.51;1601574;87;20475;-70
2022/01/09 03:30:08;;;;;;;;;;;;;;;-3.84;100.00;98940.84;1618952;87;21167;-70
2022/01/09 03:32:42;;;;;;;;;;;;;;;-3.86;100.00;98929.02;1610200;87;20148;-70
2022/01/09 03:35:12;;;;;;;;;;;;;;;-3.86;100.00;98931.70;1615974;87;20204;-71
2022/01/09 03:37:47;;;;;;;;;;;;;;;-3.87;100.00;98930.59;1633242;87;20181;-71
2022/01/09 03:40:19;;;;;;;;;;;;;;;-3.86;100.00;98928.20;1631719;87;20160;-71
2022/01/09 03:42:48;;;;;;;;;;;;;;;-3.87;100.00;98922.55;1613959;87;22290;-70
2022/01/09 03:45:32;;;;;;;;;;;;;;;-3.88;100.00;98915.03;1601930;88;20177;-76
2022/01/09 03:48:03;;;;;;;;;;;;;;;-3.87;100.00;98910.48;1611809;87;20141;-69
2022/01/09 03:50:27;;;;;;;;;;;;;;;-3.88;100.00;98907.52;1623390;87;20145;-69
2022/01/09 03:53:01;;;;;;;;;;;;;;;-3.90;100.00;98905.59;1601876;87;20182;-69
2022/01/09 03:55:36;;;;;;;;;;;;;;;-3.90;100.00;98917.14;1603001;87;22099;-70
2022/01/09 03:58:01;;;;;;;;;;;;;;;-3.90;100.00;98913.11;1612542;87;20148;-70
2022/01/09 04:00:36;;;;;;;;;;;;;;;-3.90;100.00;98909.09;1623156;87;20183;-70
2022/01/09 04:03:05;;;;;;;;;;;;;;;-3.90;100.00;98910.95;1610835;88;20098;-70
2022/01/09 04:05:36;;;;;;;;;;;;;;;-3.89;100.00;98905.36;1607624;87;20154;-69
2022/01/09 04:08:09;;;;;;;;;;;;;;;-3.89;100.00;98911.25;1625550;87;20191;-73
2022/01/09 04:10:44;;;;;;;;;;;;;;;-3.90;100.00;98907.75;1598600;85;20227;-69
2022/01/09 04:13:16;;;;;;;;;;;;;;;-3.88;100.00;98897.60;1619073;86;20158;-70
2022/01/09 04:15:49;;;;;;;;;;;;;;;-3.87;100.00;98900.57;1624773;87;20079;-70
2022/01/09 04:18:36;;;;;;;;;;;;;;;-3.87;100.00;98896.55;1608543;88;20162;-70
2022/01/09 04:20:55;;;;;;;;;;;;;;;-3.88;100.00;98888.22;1620248;87;21843;-69
2022/01/09 04:23:27;;;;;;;;;;;;;;;-3.88;100.00;98880.70;1625854;87;20486;-69
2022/01/09 04:25:59;;;;;;;;;;;;;;;-3.88;100.00;98880.17;1579447;89;20517;-69
2022/01/09 04:28:28;;;;;;;;;;;;;;;-3.88;100.00;98879.36;1601229;88;20108;-69
2022/01/09 04:31:02;;;;;;;;;;;;;;;-3.90;100.00;98876.91;1599027;88;20185;-69
2022/01/09 04:33:31;;;;;;;;;;;;;;;-3.91;100.00;98869.11;1604676;88;21198;-70
2022/01/09 04:35:59;;;;;;;;;;;;;;;-3.90;100.00;98864.03;1620963;87;20199;-69
2022/01/09 04:38:30;;;;;;;;;;;;;;;-3.90;100.00;98866.71;1617836;87;20138;-69
2022/01/09 04:41:08;;;;;;;;;;;;;;;-3.90;100.00;98864.84;1597878;87;20185;-69
2022/01/09 04:43:34;;;;;;;;;;;;;;;-3.88;100.00;98861.92;1629139;87;20438;-69
2022/01/09 04:46:07;;;;;;;;;;;;;;;-3.88;100.00;98853.88;1614367;88;21168;-69
2022/01/09 04:48:41;;;;;;;;;;;;;;;-3.89;100.00;98857.09;1615602;88;20132;-69
2022/01/09 04:51:14;;;;;;;;;;;;;;;-3.92;100.00;98856.22;1596102;88;20092;-70
2022/01/09 04:53:46;;;;;;;;;;;;;;;-3.94;100.00;98851.63;1622258;87;20684;-69
2022/01/09 04:56:18;;;;;;;;;;;;;;;-3.94;100.00;98851.63;1618260;87;20092;-69
2022/01/09 04:58:48;;;;;;;;;;;;;;;-3.93;100.00;98844.40;1603115;87;21225;-69
2022/01/09 05:01:17;;;;;;;;;;;;;;;-3.92;100.00;98844.69;1628463;87;20220;-69
2022/01/09 05:03:45;;;;;;;;;;;;;;;-3.92;100.00;98845.50;1615347;86;20182;-70
2022/01/09 05:06:14;;;;;;;;;;;;;;;-3.93;100.00;98826.97;1630350;87;20138;-69
2022/01/09 05:08:43;;;;;;;;;;;;;;;-3.91;100.00;98834.25;1624664;87;20455;-69
2022/01/09 05:11:17;;;;;;;;;;;;;;;-3.93;100.00;98821.60;1614590;86;20204;-69
2022/01/09 05:13:44;;;;;;;;;;;;;;;-3.93;100.00;98827.78;1593759;87;20146;-70
2022/01/09 05:16:18;;;;;;;;;;;;;;;-3.93;100.00;98822.42;1618563;87;20130;-70
2022/01/09 05:18:58;;;;;;;;;;;;;;;-3.93;100.00;98817.05;1606867;88;21182;-70
2022/01/09 05:21:21;;;;;;;;;;;;;;;-3.93;100.00;98810.35;1621254;87;20443;-77
2022/01/09 05:23:51;;;;;;;;;;;;;;;-3.91;100.00;98811.45;1631652;87;21924;-69
2022/01/09 05:26:23;;;;;;;;;;;;;;;-3.90;100.00;98805.85;1628443;87;20104;-69
2022/01/09 05:28:56;;;;;;;;;;;;;;;-3.87;100.00;98801.88;1653488;86;20150;-70
2022/01/09 05:31:22;;;;;;;;;;;;;;;-3.88;100.00;98798.91;1634703;86;20108;-70
2022/01/09 05:34:03;;;;;;;;;;;;;;;-3.89;100.00;98795.94;1618431;87;20272;-71
2022/01/09 05:36:19;;;;;;;;;;;;;;;-3.89;100.00;98798.63;1617290;87;21651;-71
2022/01/09 05:38:49;;;;;;;;;;;;;;;-3.89;100.00;98785.22;1621083;87;20256;-72
2022/01/09 05:41:21;;;;;;;;;;;;;;;-3.89;100.00;98793.26;1608573;87;20106;-71
2022/01/09 05:43:53;;;;;;;;;;;;;;;-3.89;100.00;98791.39;1600528;87;20152;-70
2022/01/09 05:46:17;;;;;;;;;;;;;;;-3.87;100.00;98792.49;1622659;87;20463;-69
2022/01/09 05:48:49;;;;;;;;;;;;;;;-3.87;100.00;98796.52;1635007;87;21167;-69
2022/01/09 05:51:17;;;;;;;;;;;;;;;-3.85;100.00;98790.38;1628755;87;20155;-70
2022/01/09 05:53:49;;;;;;;;;;;;;;;-3.80;100.00;98793.97;1626493;87;20458;-70
2022/01/09 05:56:15;;;;;;;;;;;;;;;-3.79;100.00;98792.11;1628864;87;20159;-69
2022/01/09 05:58:48;;;;;;;;;;;;;;;-3.79;100.00;98784.06;1633005;87;20100;-69
2022/01/09 06:01:15;;;;;;;;;;;;;;;-3.79;100.00;98778.70;1633431;86;21874;-69
2022/01/09 06:03:42;;;;;;;;;;;;;;;-3.77;100.00;98776.58;1646493;86;20092;-69
2022/01/09 06:06:12;;;;;;;;;;;;;;;-3.77;100.00;98766.67;1629189;87;20523;-70
2022/01/09 06:08:41;;;;;;;;;;;;;;;-3.75;100.00;98770.45;1627066;87;20415;-71
2022/01/09 06:11:15;;;;;;;;;;;;;;;-3.75;100.00;98774.47;1635840;86;20092;-69
2022/01/09 06:13:41;;;;;;;;;;;;;;;-3.75;100.00;98774.47;1631462;87;21618;-70
2022/01/09 06:16:13;;;;;;;;;;;;;;;-3.74;100.00;98770.20;1622670;87;20460;-69
2022/01/09 06:18:50;;;;;;;;;;;;;;;-3.73;100.00;98774.52;1589689;89;20137;-70
2022/01/09 06:21:20;;;;;;;;;;;;;;;-3.73;100.00;98762.98;1616929;87;20128;-70
2022/01/09 06:23:50;;;;;;;;;;;;;;;-3.72;100.00;98769.44;1627463;87;20146;-70
2022/01/09 06:26:23;;;;;;;;;;;;;;;-3.71;100.00;98772.41;1587837;87;20140;-70
2022/01/09 06:28:55;;;;;;;;;;;;;;;-3.70;100.00;98770.54;1613182;87;20110;-73
2022/01/09 06:31:24;;;;;;;;;;;;;;;-3.68;100.00;98771.11;1623190;87;20199;-76
2022/01/09 06:33:51;;;;;;;;;;;;;;;-3.67;100.00;98766.84;1597260;87;20432;-72
2022/01/09 06:36:23;;;;;;;;;;;;;;;-3.65;100.00;98762.58;1621448;87;20190;-72
2022/01/09 06:38:51;;;;;;;;;;;;;;;-3.65;100.00;98759.90;1612267;88;21835;-72
2022/01/09 06:41:24;;;;;;;;;;;;;;;-3.63;100.00;98760.47;1592347;88;20188;-74
2022/01/09 06:43:54;;;;;;;;;;;;;;;-3.62;100.00;98760.75;1609320;88;20162;-72
2022/01/09 06:46:27;;;;;;;;;;;;;;;-3.62;100.00;98759.41;1603546;88;20454;-74
2022/01/09 06:49:07;;;;;;;;;;;;;;;-3.60;100.00;98764.01;1612865;87;20170;-73
2022/01/09 06:51:31;;;;;;;;;;;;;;;-3.58;100.00;98755.19;1618383;88;21188;-73
2022/01/09 06:54:13;;;;;;;;;;;;;;;-3.56;100.00;98755.76;1603330;87;20110;-73
2022/01/09 06:56:35;;;;;;;;;;;;;;;-3.53;100.00;98754.46;1607487;87;20130;-73
2022/01/09 06:59:06;;;;;;;;;;;;;;;-3.52;100.00;98752.88;1613374;86;20440;-73
2022/01/09 07:01:46;;;;;;;;;;;;;;;-3.47;100.00;98752.14;1588822;88;20157;-73
2022/01/09 07:04:03;;;;;;;;;;;;;;;-3.48;100.00;98751.86;1594786;88;21792;-73
2022/01/09 07:06:34;;;;;;;;;;;;;;;-3.45;100.00;98751.34;1608849;87;20151;-73
2022/01/09 07:09:04;;;;;;;;;;;;;;;-3.42;100.00;98757.03;1604468;88;20249;-73
2022/01/09 07:11:32;;;;;;;;;;;;;;;-3.37;100.00;98757.11;1608254;88;20416;-73
2022/01/09 07:14:07;;;;;;;;;;;;;;;-3.32;100.00;98754.52;1574790;90;21208;-73
2022/01/09 07:16:35;;;;;;;;;;;;;;;-3.29;100.00;98753.20;1601532;87;21844;-77
2022/01/09 07:19:02;;;;;;;;;;;;;;;-3.25;100.00;98751.66;1630007;87;20458;-70
2022/01/09 07:21:31;;;;;;;;;;;;;;;-3.22;100.00;98743.65;1614362;87;20137;-69
2022/01/09 07:24:03;;;;;;;;;;;;;;;-3.17;100.00;98743.72;1633235;88;20134;-70
2022/01/09 07:26:34;;;;;;;;;;;;;;;-3.12;100.00;98739.77;1609482;87;20135;-74
2022/01/09 07:29:01;;;;;;;;;;;;;;;-3.10;100.00;98737.66;1602311;89;21825;-72
2022/01/09 07:31:33;;;;;;;;;;;;;;;-3.10;100.00;98731.75;1590698;88;20110;-72
2022/01/09 07:34:02;;;;;;;;;;;;;;;-3.09;100.00;98729.88;1574343;89;33461;-72
2022/01/09 07:36:35;;;;;;;;;;;;;;;-3.07;100.00;98735.82;1600331;89;20815;-72
2022/01/09 07:38:59;;;;;;;;;;;;;;;-3.05;100.00;98732.36;1594806;88;20184;-71
2022/01/09 07:41:28;;;;;;;;;;;;;;;-3.03;100.00;98735.61;1595541;89;21205;-72
2022/01/09 07:43:55;;;;;;;;;;;;;;;-3.02;100.00;98747.97;1601627;88;20206;-72
2022/01/09 07:46:21;;;;;;;;;;;;;;;-3.00;100.00;98736.45;1607159;88;20106;-72
2022/01/09 07:48:50;;;;;;;;;;;;;;;-2.98;100.00;98726.28;1603428;89;20639;-72
2022/01/09 07:51:32;;;;;;;;;;;;;;;-2.97;100.00;98719.84;1602302;89;20183;-72
2022/01/09 07:53:53;;;;;;;;;;;;;;;-2.93;100.00;98717.48;1604075;88;21611;-70
2022/01/09 07:56:23;;;;;;;;;;;;;;;-2.93;100.00;98711.58;1600146;88;20205;-71
2022/01/09 07:58:56;;;;;;;;;;;;;;;-2.92;100.00;98705.68;1609656;87;20155;-70
2022/01/09 08:01:22;;;;;;;;;;;;;;;-2.92;100.00;98714.55;1627906;87;20104;-71
2022/01/09 08:03:49;;;;;;;;;;;;;;;-2.91;100.00;98712.67;1627982;87;20120;-70
2022/01/09 08:06:24;;;;;;;;;;;;;;;-2.89;100.00;98710.55;1627298;87;20120;-70
2022/01/09 08:08:51;;;;;;;;;;;;;;;-2.85;100.00;98703.06;1622696;87;20125;-70
2022/01/09 08:11:22;;;;;;;;;;;;;;;-2.84;100.00;98699.31;1620035;87;20109;-71
2022/01/09 08:13:49;;;;;;;;;;;;;;;-2.84;100.00;98685.07;1625449;87;20688;-71
2022/01/09 08:16:17;;;;;;;;;;;;;;;-2.82;100.00;98686.45;1628592;86;20507;-71
2022/01/09 08:18:48;;;;;;;;;;;;;;;-2.81;100.00;98682.70;1628412;87;21210;-72
2022/01/09 08:21:19;;;;;;;;;;;;;;;-2.79;100.00;98674.39;1632207;87;20104;-71
2022/01/09 08:23:51;;;;;;;;;;;;;;;-2.76;100.00;98670.67;1620006;87;20170;-71
2022/01/09 08:26:19;;;;;;;;;;;;;;;-2.76;100.00;98673.89;1623706;87;20157;-71
2022/01/09 08:28:54;;;;;;;;;;;;;;;-2.79;100.00;98669.02;1620097;87;20174;-71
2022/01/09 08:31:21;;;;;;;;;;;;;;;-2.79;100.00;98662.30;1594005;88;20197;-71
2022/01/09 08:33:51;;;;;;;;;;;;;;;-2.77;100.00;98650.24;1628266;87;20107;-70
2022/01/09 08:36:24;;;;;;;;;;;;;;;-2.75;100.00;98642.75;1628845;87;20104;-71
2022/01/09 08:38:50;;;;;;;;;;;;;;;-2.72;100.00;98635.53;1610058;87;20152;-73
2022/01/09 08:41:20;;;;;;;;;;;;;;;-2.68;100.00;98635.84;1602141;86;20161;-72
2022/01/09 08:43:48;;;;;;;;;;;;;;;-2.62;100.00;98627.30;1630696;86;20561;-73
2022/01/09 08:46:15;;;;;;;;;;;;;;;-2.55;100.00;98628.73;1631309;87;20136;-74
2022/01/09 08:48:41;;;;;;;;;;;;;;;-2.54;100.00;98627.66;1636679;86;20091;-75
2022/01/09 08:51:08;;;;;;;;;;;;;;;-2.51;100.00;98629.03;1631569;86;20152;-75
2022/01/09 08:53:41;;;;;;;;;;;;;;;-2.48;100.00;98621.81;1624311;87;20434;-73
2022/01/09 08:56:05;;;;;;;;;;;;;;;-2.46;100.00;98627.21;1630063;86;20137;-76
2022/01/09 08:58:32;;;;;;;;;;;;;;;-2.43;100.00;98624.55;1624894;87;20178;-70
2022/01/09 09:01:00;;;;;;;;;;;;;;;-2.43;100.00;98625.36;1631131;87;20111;-74
2022/01/09 09:03:27;;;;;;;;;;;;;;;-2.39;100.00;98628.35;1630019;86;20439;-74
2022/01/09 09:05:53;;;;;;;;;;;;;;;-2.41;100.00;98621.89;1626815;87;20164;-75
2022/01/09 09:08:20;;;;;;;;;;;;;;;-2.44;100.00;98619.70;1625805;87;21157;-73
2022/01/09 09:10:46;;;;;;;;;;;;;;;-2.48;100.00;98614.56;1618292;87;20100;-73
2022/01/09 09:13:13;;;;;;;;;;;;;;;-2.48;100.00;98616.44;1630929;86;20441;-76
2022/01/09 09:15:39;;;;;;;;;;;;;;;-2.49;100.00;98614.28;1628483;86;20157;-72
2022/01/09 09:18:06;;;;;;;;;;;;;;;-2.47;100.00;98614.02;1632324;87;20148;-73
2022/01/09 09:20:33;;;;;;;;;;;;;;;-2.46;100.00;98615.65;1635316;84;21139;-72
2022/01/09 09:22:59;;;;;;;;;;;;;;;-2.47;100.00;98610.81;1644131;86;20317;-74
2022/01/09 09:25:26;;;;;;;;;;;;;;;-2.43;100.00;98611.11;1626368;87;20456;-72
2022/01/09 09:27:52;;;;;;;;;;;;;;;-2.42;100.00;98611.39;1625172;87;20138;-74
2022/01/09 09:30:19;;;;;;;;;;;;;;;-2.41;100.00;98600.92;1611886;86;20100;-73
2022/01/09 09:32:46;;;;;;;;;;;;;;;-2.38;100.00;98586.97;1619311;87;21771;-73
2022/01/09 09:35:13;;;;;;;;;;;;;;;-2.35;100.00;98588.61;1627078;87;20104;-74
2022/01/09 09:37:39;;;;;;;;;;;;;;;-2.32;100.00;98585.14;1632398;86;20157;-72
2022/01/09 09:40:07;;;;;;;;;;;;;;;-2.31;100.00;98592.14;1627050;87;20175;-73
2022/01/09 09:42:33;;;;;;;;;;;;;;;-2.32;100.00;98581.11;1631973;86;20181;-75
2022/01/09 09:45:00;;;;;;;;;;;;;;;-2.32;100.00;98585.14;1615931;87;21125;-76
2022/01/09 09:47:27;;;;;;;;;;;;;;;-2.33;100.00;98591.05;1627351;86;20156;-77
2022/01/09 09:49:53;;;;;;;;;;;;;;;-2.33;100.00;98585.67;1618648;86;20122;-75
2022/01/09 09:52:19;;;;;;;;;;;;;;;-2.32;100.00;98577.89;1630066;86;20132;-71
2022/01/09 09:54:47;;;;;;;;;;;;;;;-2.29;100.00;98571.97;1619201;86;20098;-73
2022/01/09 09:57:14;;;;;;;;;;;;;;;-2.27;100.00;98567.14;1636031;86;21129;-73
2022/01/09 09:59:40;;;;;;;;;;;;;;;-2.26;100.00;98563.39;1613137;88;20432;-71
2022/01/09 10:02:11;;;;;;;;;;;;;;;-2.24;100.00;98561.25;1574667;89;20161;-72
2022/01/09 10:04:40;;;;;;;;;;;;;;;-2.20;100.00;98567.74;1621259;87;20108;-72
2022/01/09 10:07:06;;;;;;;;;;;;;;;-2.18;100.00;98560.77;1598965;88;20500;-72
2022/01/09 10:09:33;;;;;;;;;;;;;;;-2.18;100.00;98558.89;1608774;86;21114;-71
2022/01/09 10:12:04;;;;;;;;;;;;;;;-2.18;100.00;98561.58;1610271;87;20460;-80
2022/01/09 10:14:33;;;;;;;;;;;;;;;-2.16;100.00;98554.59;1614322;86;20165;-84
2022/01/09 10:17:13;;;;;;;;;;;;;;;-2.14;100.00;98559.19;1620985;86;20832;-73
2022/01/09 10:19:42;;;;;;;;;;;;;;;-2.11;100.00;98551.95;1610474;87;20439;-74
2022/01/09 10:22:33;;;;;;;;;;;;;;;-2.08;100.00;98544.70;1614743;87;22229;-73
2022/01/09 10:25:30;;;;;;;;;;;;;;;-2.04;100.00;98547.97;1606150;87;20128;-73
2022/01/09 10:28:01;;;;;;;;;;;;;;;-2.01;100.00;98547.99;1613654;88;20109;-73
2022/01/09 10:30:39;;;;;;;;;;;;;;;-2.03;100.00;98540.72;1611919;86;20174;-74
2022/01/09 10:33:10;;;;;;;;;;;;;;;-2.01;100.00;98535.89;1613535;87;20102;-73
2022/01/09 10:35:38;;;;;;;;;;;;;;;-2.00;100.00;98519.49;1606906;87;21819;-74
2022/01/09 10:38:07;;;;;;;;;;;;;;;-1.97;100.00;98520.05;1600358;87;20214;-74
2022/01/09 10:40:36;;;;;;;;;;;;;;;-1.98;100.00;98525.95;1609959;88;20177;-80
2022/01/09 10:43:05;;;;;;;;;;;;;;;-1.97;100.00;98536.99;1608423;86;20121;-73
2022/01/09 10:45:31;;;;;;;;;;;;;;;-1.96;100.00;98529.73;1616384;87;20145;-75
2022/01/09 10:48:06;;;;;;;;;;;;;;;-1.94;100.00;98514.14;1612625;88;21148;-74
2022/01/09 10:50:35;;;;;;;;;;;;;;;-1.93;100.00;98515.23;1576355;89;20452;-74
2022/01/09 10:53:22;;;;;;;;;;;;;;;-1.91;100.00;98509.59;1624116;87;20438;-72
2022/01/09 10:56:06;;;;;;;;;;;;;;;-1.89;100.00;98512.83;1622343;87;20382;-73
2022/01/09 10:58:36;;;;;;;;;;;;;;;-1.86;100.00;98510.97;1614969;88;20174;-75
2022/01/09 11:01:13;;;;;;;;;;;;;;;-1.82;100.00;98508.03;1607889;86;21325;-72
2022/01/09 11:03:41;;;;;;;;;;;;;;;-1.82;100.00;98508.03;1603875;87;20270;-73
2022/01/09 11:06:08;;;;;;;;;;;;;;;-1.79;100.00;98502.94;1610006;87;20177;-75
2022/01/09 11:08:36;;;;;;;;;;;;;;;-1.76;100.00;98502.95;1632497;87;20514;-73
2022/01/09 11:11:06;;;;;;;;;;;;;;;-1.75;100.00;98495.97;1626840;87;20478;-72
2022/01/09 11:13:32;;;;;;;;;;;;;;;-1.73;100.00;98498.38;1607990;86;21163;-75
2022/01/09 11:18:43;;;;;;;;;;;;;;;-1.74;100.00;98481.98;1599276;87;20123;-73
2022/01/09 11:21:10;;;;;;;;;;;;;;;-1.75;100.00;98473.64;1614926;87;20155;-71
2022/01/09 11:24:13;;;;;;;;;;;;;;;-1.76;100.00;98473.36;1614367;86;20479;-72
2022/01/09 11:27:01;;;;;;;;;;;;;;;-1.75;100.00;98472.29;1608453;88;21563;-74
2022/01/09 11:30:05;;;;;;;;;;;;;;;-1.74;100.00;98476.59;1613145;87;20093;-75
2022/01/09 11:33:05;;;;;;;;;;;;;;;-1.73;100.00;98478.19;1599447;87;20141;-72
2022/01/09 11:35:56;;;;;;;;;;;;;;;-1.73;100.00;98473.62;1608524;86;20453;-71
2022/01/09 11:38:52;;;;;;;;;;;;;;;-1.70;100.00;98478.47;1584891;87;20093;-71
2022/01/09 11:41:20;;;;;;;;;;;;;;;-1.68;100.00;98480.37;1609861;88;22099;-72
2022/01/09 11:44:02;;;;;;;;;;;;;;;-1.62;100.00;98480.39;1619743;87;20104;-72
2022/01/09 11:46:30;;;;;;;;;;;;;;;-1.66;100.00;98482.27;1622966;87;20082;-72
2022/01/09 11:49:00;;;;;;;;;;;;;;;-1.66;100.00;98479.57;1601049;87;20141;-72
2022/01/09 11:51:34;;;;;;;;;;;;;;;-1.67;100.00;98475.80;1611163;87;20560;-72
2022/01/09 11:54:04;;;;;;;;;;;;;;;-1.70;100.00;98475.78;1621327;87;22178;-72
2022/01/09 11:57:06;;;;;;;;;;;;;;;-1.72;100.00;98478.46;1625746;87;20091;-72
2022/01/09 11:59:45;;;;;;;;;;;;;;;-1.75;100.00;98470.41;1635284;86;20165;-72
2022/01/09 12:02:27;;;;;;;;;;;;;;;-1.76;100.00;98462.06;1630397;87;20156;-72
2022/01/09 12:04:52;;;;;;;;;;;;;;;-1.76;100.00;98464.75;1626033;87;20098;-71
2022/01/09 12:07:34;;;;;;;;;;;;;;;-1.77;100.00;98465.02;1629498;87;21025;-72
2022/01/09 12:10:02;;;;;;;;;;;;;;;-1.78;100.00;98462.86;1628254;87;20407;-71
2022/01/09 12:12:35;;;;;;;;;;;;;;;-1.77;100.00;98466.36;1622634;86;20102;-73
2022/01/09 12:15:04;;;;;;;;;;;;;;;-1.74;100.00;98463.14;1616875;86;20131;-74
2022/01/09 12:17:39;;;;;;;;;;;;;;;-1.70;100.00;98458.83;1600280;87;20166;-73
2022/01/09 12:20:14;;;;;;;;;;;;;;;-1.64;100.00;98457.78;1633928;86;21150;-72
2022/01/09 12:22:50;;;;;;;;;;;;;;;-1.63;100.00;98462.09;1617808;87;20206;-71
2022/01/09 12:25:28;;;;;;;;;;;;;;;-1.64;100.00;98458.31;1619739;88;20523;-72
2022/01/09 12:28:14;;;;;;;;;;;;;;;-1.67;100.00;98455.61;1620407;88;20373;-71
2022/01/09 12:30:44;;;;;;;;;;;;;;;-1.70;100.00;98456.14;1609451;87;20212;-72
2022/01/09 12:33:20;;;;;;;;;;;;;;;-1.71;100.00;98454.52;1603797;89;21819;-72
2022/01/09 12:35:49;;;;;;;;;;;;;;;-1.71;100.00;98451.83;1619938;87;20128;-73
2022/01/09 12:38:17;;;;;;;;;;;;;;;-1.71;100.00;98454.52;1629375;87;20088;-72
2022/01/09 12:40:44;;;;;;;;;;;;;;;-1.72;100.00;98456.94;1636646;87;20127;-72
2022/01/09 12:43:12;;;;;;;;;;;;;;;-1.72;100.00;98451.55;1621070;87;20454;-72
2022/01/09 12:45:45;;;;;;;;;;;;;;;-1.72;100.00;98446.98;1608701;88;21130;-71
2022/01/09 12:48:24;;;;;;;;;;;;;;;-1.71;100.00;98445.10;1620704;87;20104;-73
2022/01/09 12:50:48;;;;;;;;;;;;;;;-1.69;100.00;98440.27;1612100;86;20144;-74
2022/01/09 12:53:29;;;;;;;;;;;;;;;-1.69;100.00;98436.23;1609782;87;20362;-74
2022/01/09 12:56:09;;;;;;;;;;;;;;;-1.70;100.00;98435.95;1630501;87;20115;-75
2022/01/09 12:58:44;;;;;;;;;;;;;;;-1.71;100.00;98438.37;1621009;86;21217;-74
2022/01/09 13:01:19;;;;;;;;;;;;;;;-1.71;100.00;98441.06;1617226;86;20104;-73